createdAt,value
2023-04-05T00:00:49.304Z,99.90
2023-04-05T00:03:21.829Z,99.90
2023-04-05T00:05:52.420Z,99.90
2023-04-05T00:08:26.886Z,99.90
2023-04-05T00:10:56.610Z,99.90
2023-04-05T00:13:24.167Z,99.90
2023-04-05T00:15:57.274Z,99.90
2023-04-05T00:18:25.375Z,99.90
2023-04-05T00:20:55.033Z,99.90
2023-04-05T00:23:23.180Z,99.90
2023-04-05T00:25:50.536Z,99.90
2023-04-05T00:28:17.541Z,99.90
2023-04-05T00:33:39.488Z,99.90
2023-04-05T00:36:18.157Z,99.90
2023-04-05T00:38:46.353Z,99.90
2023-04-05T00:41:14.241Z,99.90
2023-04-05T00:43:42.297Z,99.90
2023-04-05T00:46:09.959Z,99.90
2023-04-05T00:48:38.183Z,99.90
2023-04-05T00:51:09.497Z,99.90
2023-04-05T00:53:40.981Z,99.90
2023-04-05T00:56:08.533Z,99.90
2023-04-05T00:58:35.681Z,99.90
2023-04-05T01:01:21.038Z,99.90
2023-04-05T01:04:03.089Z,99.90
2023-04-05T01:06:35.228Z,99.90
2023-04-05T01:09:13.988Z,99.90
2023-04-05T01:11:43.534Z,99.90
2023-04-05T01:14:10.678Z,99.90
2023-04-05T01:16:39.158Z,99.90
2023-04-05T01:19:06.132Z,99.90
2023-04-05T01:21:38.837Z,99.90
2023-04-05T01:24:30.990Z,99.90
2023-04-05T01:27:39.138Z,99.90
2023-04-05T01:30:40.242Z,99.90
2023-04-05T01:33:21.769Z,99.90
2023-04-05T01:35:58.751Z,99.90
2023-04-05T01:38:28.365Z,99.90
2023-04-05T01:40:55.499Z,99.90
2023-04-05T01:43:22.831Z,99.90
2023-04-05T01:45:49.792Z,99.90
2023-04-05T01:48:16.767Z,99.90
2023-04-05T01:50:44.210Z,99.90
2023-04-05T01:53:11.287Z,99.90
2023-04-05T01:55:38.315Z,99.90
2023-04-05T01:58:05.910Z,99.90
2023-04-05T02:00:32.845Z,99.90
2023-04-05T02:03:00.025Z,99.90
2023-04-05T02:05:27.171Z,99.90
2023-04-05T02:07:56.741Z,99.90
2023-04-05T02:10:24.778Z,99.90
2023-04-05T02:12:52.007Z,99.90
2023-04-05T02:15:18.856Z,99.90
2023-04-05T02:17:46.031Z,99.90
2023-04-05T02:20:14.923Z,99.90
2023-04-05T02:22:45.766Z,99.90
2023-04-05T02:25:13.360Z,99.90
2023-04-05T02:27:41.356Z,99.90
2023-04-05T02:30:08.822Z,99.90
2023-04-05T02:32:36.170Z,99.90
2023-04-05T02:35:03.469Z,99.90
2023-04-05T02:37:30.487Z,99.90
2023-04-05T02:39:57.678Z,99.90
2023-04-05T02:42:24.861Z,99.90
2023-04-05T02:44:55.289Z,99.90
2023-04-05T02:47:22.582Z,99.90
2023-04-05T02:49:50.003Z,99.90
2023-04-05T02:52:17.643Z,99.90
2023-04-05T02:54:44.888Z,99.90
2023-04-05T02:57:12.214Z,99.90
2023-04-05T02:59:39.798Z,99.90
2023-04-05T03:02:07.550Z,99.90
2023-04-05T03:04:34.932Z,99.90
2023-04-05T03:07:05.696Z,99.90
2023-04-05T03:09:34.006Z,99.90
2023-04-05T03:12:05.049Z,99.90
2023-04-05T03:14:32.637Z,99.90
2023-04-05T03:16:59.446Z,99.90
2023-04-05T03:19:27.310Z,99.90
2023-04-05T03:21:54.171Z,99.90
2023-04-05T03:24:21.479Z,99.90
2023-04-05T03:26:50.086Z,99.90
2023-04-05T03:29:17.947Z,99.90
2023-04-05T03:31:45.910Z,99.90
2023-04-05T03:34:13.399Z,99.90
2023-04-05T03:36:43.123Z,99.90
2023-04-05T03:39:11.015Z,99.90
2023-04-05T03:41:38.786Z,99.90
2023-04-05T03:44:06.803Z,99.90
2023-04-05T03:46:34.243Z,99.90
2023-04-05T03:49:02.485Z,99.90
2023-04-05T03:51:29.743Z,99.90
2023-04-05T03:53:57.067Z,99.90
2023-04-05T03:56:23.923Z,99.90
2023-04-05T03:58:53.627Z,99.90
2023-04-05T04:01:20.842Z,99.90
2023-04-05T04:03:47.800Z,99.90
2023-04-05T04:06:17.032Z,99.90
2023-04-05T04:08:45.627Z,99.90
2023-04-05T04:11:14.977Z,99.90
2023-04-05T04:13:42.132Z,99.90
2023-04-05T04:16:11.394Z,99.90
2023-04-05T04:18:38.728Z,99.90
2023-04-05T04:21:07.083Z,99.90
2023-04-05T04:23:34.953Z,99.90
2023-04-05T04:26:03.124Z,99.90
2023-04-05T04:28:33.122Z,99.90
2023-04-05T04:31:04.743Z,99.90
2023-04-05T04:33:31.648Z,99.90
2023-04-05T04:35:58.544Z,99.90
2023-04-05T04:38:26.212Z,99.90
2023-04-05T04:40:55.754Z,99.90
2023-04-05T04:43:26.873Z,99.90
2023-04-05T04:45:59.191Z,99.90
2023-04-05T04:48:26.097Z,99.90
2023-04-05T04:50:53.459Z,99.90
2023-04-05T04:53:24.106Z,99.90
2023-04-05T04:55:51.697Z,99.90
2023-04-05T04:58:18.757Z,99.90
2023-04-05T05:00:46.028Z,99.90
2023-04-05T05:03:13.735Z,99.90
2023-04-05T05:05:45.511Z,99.90
2023-04-05T05:08:12.761Z,99.90
2023-04-05T05:10:40.208Z,99.90
2023-04-05T05:13:07.714Z,99.90
2023-04-05T05:15:34.890Z,99.90
2023-04-05T05:18:01.867Z,99.90
2023-04-05T05:20:29.097Z,99.90
2023-04-05T05:22:56.143Z,99.90
2023-04-05T05:25:23.003Z,99.90
2023-04-05T05:27:53.658Z,99.90
2023-04-05T05:30:21.047Z,99.90
2023-04-05T05:32:49.062Z,99.90
2023-04-05T05:35:16.414Z,99.90
2023-04-05T05:37:43.287Z,99.90
2023-04-05T05:40:13.597Z,99.90
2023-04-05T05:42:41.282Z,99.90
2023-04-05T05:45:09.293Z,99.90
2023-04-05T05:47:37.379Z,99.90
2023-04-05T05:50:05.436Z,99.90
2023-04-05T05:52:34.891Z,99.90
2023-04-05T05:55:02.739Z,99.90
2023-04-05T05:57:29.601Z,99.90
2023-04-05T05:59:57.822Z,99.90
2023-04-05T06:02:25.261Z,99.90
2023-04-05T06:04:52.513Z,99.90
2023-04-05T06:07:19.428Z,99.90
2023-04-05T06:09:47.670Z,99.90
2023-04-05T06:12:14.588Z,99.90
2023-04-05T06:14:41.792Z,99.90
2023-04-05T06:17:09.126Z,99.90
2023-04-05T06:19:36.028Z,99.90
2023-04-05T06:22:03.135Z,99.90
2023-04-05T06:24:32.212Z,99.90
2023-04-05T06:27:01.305Z,99.90
2023-04-05T06:29:28.557Z,99.90
2023-04-05T06:31:55.687Z,99.90
2023-04-05T06:34:22.808Z,99.90
2023-04-05T06:36:50.306Z,99.90
2023-04-05T06:39:17.244Z,99.90
2023-04-05T06:41:44.053Z,99.90
2023-04-05T06:44:11.019Z,99.90
2023-04-05T06:46:38.141Z,99.90
2023-04-05T06:49:05.270Z,99.90
2023-04-05T06:51:32.323Z,99.90
2023-04-05T06:53:59.305Z,99.90
2023-04-05T06:56:26.779Z,99.90
2023-04-05T06:58:54.189Z,99.90
2023-04-05T07:01:21.453Z,99.90
2023-04-05T07:03:48.387Z,99.90
2023-04-05T07:06:15.856Z,99.90
2023-04-05T07:08:42.916Z,99.90
2023-04-05T07:11:09.926Z,99.90
2023-04-05T07:16:06.989Z,99.90
2023-04-05T07:18:33.872Z,99.90
2023-04-05T07:21:00.869Z,99.90
2023-04-05T07:23:28.671Z,99.90
2023-04-05T07:25:59.219Z,99.90
2023-04-05T07:28:26.270Z,99.90
2023-04-05T07:30:53.425Z,99.90
2023-04-05T07:33:21.040Z,99.90
2023-04-05T07:35:57.071Z,99.90
2023-04-05T07:38:24.226Z,99.90
2023-04-05T07:40:51.579Z,99.90
2023-04-05T07:43:19.048Z,99.90
2023-04-05T07:45:46.431Z,99.90
2023-04-05T07:48:13.416Z,99.90
2023-04-05T07:50:41.402Z,99.90
2023-04-05T07:53:08.532Z,99.90
2023-04-05T07:55:38.466Z,99.90
2023-04-05T07:58:05.670Z,99.90
2023-04-05T08:00:32.549Z,99.90
2023-04-05T08:03:02.116Z,99.90
2023-04-05T08:05:29.574Z,99.90
2023-04-05T08:07:58.546Z,99.90
2023-04-05T08:10:26.299Z,99.90
2023-04-05T08:12:53.586Z,99.90
2023-04-05T08:15:21.118Z,99.90
2023-04-05T08:17:48.000Z,99.90
2023-04-05T08:20:14.841Z,99.90
2023-04-05T08:22:41.670Z,99.90
2023-04-05T08:25:10.096Z,99.90
2023-04-05T08:27:36.899Z,99.90
2023-04-05T08:30:04.239Z,99.90
2023-04-05T08:32:32.395Z,99.90
2023-04-05T08:34:59.313Z,99.90
2023-04-05T08:37:29.167Z,99.90
2023-04-05T08:39:55.976Z,99.90
2023-04-05T08:42:46.555Z,99.90
2023-04-05T08:45:18.122Z,99.90
2023-04-05T08:47:46.578Z,99.90
2023-04-05T08:50:14.305Z,99.90
2023-04-05T08:52:43.197Z,99.90
2023-04-05T08:55:11.446Z,99.90
2023-04-05T08:57:42.597Z,99.90
2023-04-05T09:00:10.490Z,99.90
2023-04-05T09:02:38.390Z,99.90
2023-04-05T09:05:09.471Z,99.90
2023-04-05T09:07:37.568Z,99.90
2023-04-05T09:10:06.707Z,99.90
2023-04-05T09:12:35.985Z,99.90
2023-04-05T09:15:03.078Z,99.90
2023-04-05T13:13:50.838Z,53.60
2023-04-05T13:16:17.675Z,47.90
2023-04-05T13:18:44.875Z,54.20
2023-04-05T13:21:12.007Z,52.10
2023-04-05T13:23:40.186Z,50.30
2023-04-05T13:26:07.388Z,49.40
2023-04-05T13:28:34.635Z,47.30
2023-04-05T13:31:02.980Z,51.40
2023-04-05T13:33:29.877Z,49.90
2023-04-05T13:35:57.050Z,48.70
2023-04-05T13:38:23.894Z,47.50
2023-04-05T13:40:50.828Z,47.00
2023-04-05T13:43:18.025Z,45.20
2023-04-05T13:45:44.809Z,45.50
2023-04-05T13:48:11.966Z,44.70
2023-04-05T13:50:38.915Z,42.70
2023-04-05T13:53:06.121Z,45.30
2023-04-05T13:55:32.967Z,44.50
2023-04-05T13:58:00.048Z,40.20
2023-04-05T14:00:27.268Z,43.10
2023-04-05T14:02:54.623Z,41.30
2023-04-05T14:05:21.750Z,41.40
2023-04-05T14:07:50.616Z,39.70
2023-04-05T14:10:17.826Z,40.60
2023-04-05T14:12:44.883Z,38.90
2023-04-05T14:15:12.134Z,40.10
2023-04-05T14:17:39.067Z,39.40
2023-04-05T14:20:06.958Z,38.70
2023-04-05T14:22:34.390Z,41.10
2023-04-05T14:25:02.088Z,39.90
2023-04-05T14:27:28.926Z,38.50
2023-04-05T14:29:59.250Z,38.70
2023-04-05T14:32:27.125Z,36.70
2023-04-05T14:34:54.417Z,35.50
2023-04-05T14:37:21.914Z,34.50
2023-04-05T14:39:48.844Z,35.20
2023-04-05T14:42:16.656Z,34.70
2023-04-05T14:44:45.355Z,33.90
2023-04-05T14:47:12.240Z,35.20
2023-04-05T14:49:41.434Z,33.40
2023-04-05T14:52:08.494Z,36.70
2023-04-05T14:54:35.477Z,36.40
2023-04-05T14:57:02.298Z,35.90
2023-04-05T14:59:32.178Z,35.80
2023-04-05T15:01:59.128Z,37.80
2023-04-05T15:04:26.850Z,36.40
2023-04-05T15:06:53.832Z,38.70
2023-04-05T15:09:20.964Z,38.00
2023-04-05T15:11:47.806Z,36.40
2023-04-05T15:14:24.881Z,37.80
2023-04-05T15:16:56.156Z,36.60
2023-04-05T15:19:22.986Z,45.60
2023-04-05T15:21:50.047Z,42.20
2023-04-05T15:24:17.718Z,42.00
2023-04-05T15:26:44.722Z,40.70
2023-04-05T15:29:11.894Z,48.90
2023-04-05T15:31:39.861Z,38.80
2023-04-05T15:34:08.349Z,33.60
2023-04-05T15:36:36.380Z,33.30
2023-04-05T15:39:05.517Z,31.40
2023-04-05T15:41:33.808Z,31.30
2023-04-05T15:44:01.420Z,33.60
2023-04-05T15:46:29.467Z,32.50
2023-04-05T15:48:56.582Z,32.30
2023-04-05T15:51:24.094Z,32.50
2023-04-05T15:53:51.761Z,32.20
2023-04-05T15:56:18.892Z,31.90
2023-04-05T15:58:45.841Z,32.10
2023-04-05T16:01:14.300Z,32.80
2023-04-05T16:03:42.584Z,32.60
2023-04-05T16:06:09.599Z,32.00
2023-04-05T16:08:36.829Z,33.40
2023-04-05T16:11:04.914Z,33.30
2023-04-05T16:13:31.924Z,33.10
2023-04-05T16:15:59.531Z,34.50
2023-04-05T16:18:28.110Z,34.60
2023-04-05T16:20:56.260Z,36.80
2023-04-05T16:23:23.287Z,36.00
2023-04-05T16:25:50.406Z,36.90
2023-04-05T16:28:17.432Z,35.30
2023-04-05T16:30:46.350Z,36.40
2023-04-05T16:33:16.592Z,36.60
2023-04-05T16:35:44.739Z,36.80
2023-04-05T16:38:11.684Z,36.00
2023-04-05T16:40:38.942Z,35.20
2023-04-05T16:43:05.932Z,34.80
2023-04-05T16:45:33.998Z,35.40
2023-04-05T16:48:01.279Z,35.70
2023-04-05T16:50:28.237Z,36.80
2023-04-05T16:52:55.106Z,36.80
2023-04-05T16:55:22.279Z,37.00
2023-04-05T16:57:49.106Z,37.60
2023-04-05T17:00:16.288Z,37.60
2023-04-05T17:02:47.609Z,38.30
2023-04-05T17:05:14.784Z,37.70
2023-04-05T17:07:41.842Z,38.00
2023-04-05T17:10:09.511Z,37.40
2023-04-05T17:12:40.916Z,37.90
2023-04-05T17:15:09.488Z,37.60
2023-04-05T17:17:36.991Z,37.70
2023-04-05T17:20:06.210Z,38.70
2023-04-05T17:22:33.490Z,39.10
2023-04-05T17:25:02.799Z,38.10
2023-04-05T17:27:29.898Z,39.00
2023-04-05T17:29:56.930Z,38.70
2023-04-05T17:32:27.079Z,38.70
2023-04-05T17:34:54.478Z,39.20
2023-04-05T17:37:21.372Z,42.60
2023-04-05T17:39:48.748Z,46.00
2023-04-05T17:42:17.453Z,47.90
2023-04-05T17:44:45.116Z,51.20
2023-04-05T17:47:12.385Z,47.50
2023-04-05T17:49:39.570Z,46.10
2023-04-05T17:52:09.673Z,43.90
2023-04-05T17:54:37.215Z,43.90
2023-04-05T17:57:07.128Z,23.50
2023-04-05T17:59:35.604Z,16.20
2023-04-05T18:02:02.658Z,14.00
2023-04-05T18:04:29.629Z,15.40
2023-04-05T18:06:56.995Z,16.10
2023-04-05T18:09:24.005Z,17.30
2023-04-05T18:11:51.499Z,15.20
2023-04-05T18:14:18.428Z,23.20
2023-04-05T18:16:45.419Z,38.00
2023-04-05T18:19:20.360Z,43.80
2023-04-05T18:21:47.543Z,63.80
2023-04-05T18:24:14.970Z,53.60
2023-04-05T18:26:42.010Z,47.60
2023-04-05T18:29:09.271Z,69.60
2023-04-05T18:31:36.578Z,78.70
2023-04-05T18:34:06.506Z,99.90
2023-04-05T18:36:33.438Z,99.90
2023-04-05T18:39:05.068Z,99.90
2023-04-05T18:41:32.404Z,91.00
2023-04-05T18:43:59.403Z,89.30
2023-04-05T18:46:27.001Z,91.40
2023-04-05T18:48:57.965Z,86.00
2023-04-05T18:51:28.923Z,91.10
2023-04-05T18:53:56.577Z,94.60
2023-04-05T18:56:23.987Z,96.60
2023-04-05T18:58:51.228Z,99.90
2023-04-05T19:01:20.239Z,99.90
2023-04-05T19:03:47.901Z,99.90
2023-04-05T19:06:15.796Z,99.90
2023-04-05T19:08:43.288Z,99.90
2023-04-05T19:11:13.704Z,99.90
2023-04-05T19:13:46.060Z,99.90
2023-04-05T19:16:16.089Z,99.90
2023-04-05T19:18:43.351Z,99.90
2023-04-05T19:21:10.515Z,99.90
2023-04-05T19:23:38.896Z,99.90
2023-04-05T19:26:05.925Z,99.90
2023-04-05T19:28:33.201Z,99.90
2023-04-05T19:31:01.389Z,99.90
2023-04-05T19:33:31.637Z,99.90
2023-04-05T19:35:58.932Z,99.90
2023-04-05T19:38:26.470Z,99.90
2023-04-05T19:40:53.856Z,99.90
2023-04-05T19:43:21.205Z,99.90
2023-04-05T19:45:52.280Z,99.90
2023-04-05T19:48:41.709Z,99.90
2023-04-05T19:51:10.527Z,99.90
2023-04-05T19:53:49.606Z,99.90
2023-04-05T19:56:22.165Z,99.90
2023-04-05T19:58:55.151Z,99.90
2023-04-05T20:01:34.225Z,99.90
2023-04-05T20:04:09.482Z,99.90
2023-04-05T20:06:36.517Z,99.90
2023-04-05T20:09:06.123Z,99.90
2023-04-05T20:11:33.848Z,99.90
2023-04-05T20:14:02.708Z,99.90
2023-04-05T20:16:34.912Z,99.90
2023-04-05T20:19:09.986Z,99.90
2023-04-05T20:21:37.950Z,99.90
2023-04-05T20:24:08.585Z,99.90
2023-04-05T20:26:36.040Z,99.90
2023-04-05T20:29:07.296Z,99.90
2023-04-05T20:31:39.333Z,99.90
2023-04-05T20:34:10.164Z,99.90
2023-04-05T20:36:56.890Z,99.90
2023-04-05T20:39:23.981Z,99.90
2023-04-05T20:41:51.462Z,99.90
2023-04-05T20:44:18.897Z,99.90
2023-04-05T20:46:46.855Z,99.90
2023-04-05T20:49:13.930Z,99.90
2023-04-05T20:51:43.000Z,99.90
2023-04-05T20:54:10.522Z,99.90
2023-04-05T20:56:37.452Z,99.90
2023-04-05T20:59:07.731Z,99.90
2023-04-05T21:01:36.917Z,99.90
2023-04-05T21:04:07.332Z,99.90
2023-04-05T21:06:36.659Z,99.90
2023-04-05T21:09:03.854Z,99.90
2023-04-05T21:11:30.910Z,99.90
2023-04-05T21:13:58.646Z,99.90
2023-04-05T21:16:26.862Z,99.90
2023-04-05T21:18:53.938Z,99.90
2023-04-05T21:21:20.936Z,99.90
2023-04-05T21:23:49.278Z,99.90
2023-04-05T21:26:19.031Z,99.90
2023-04-05T21:28:46.205Z,99.90
2023-04-05T21:31:13.139Z,99.90
2023-04-05T21:33:40.357Z,99.90
2023-04-05T21:36:07.570Z,99.90
2023-04-05T21:38:35.628Z,99.90
2023-04-05T21:41:04.025Z,99.90
2023-04-05T21:43:31.109Z,99.90
2023-04-05T21:45:58.825Z,99.90
2023-04-05T21:48:28.472Z,99.90
2023-04-05T21:50:55.996Z,99.90
2023-04-05T21:53:25.552Z,99.90
2023-04-05T21:55:53.097Z,99.90
2023-04-05T21:58:20.329Z,99.90
2023-04-05T22:00:47.816Z,99.90
2023-04-05T22:03:19.376Z,99.90
2023-04-05T22:05:48.508Z,99.90
2023-04-05T22:08:15.547Z,99.90
2023-04-05T22:10:43.851Z,99.90
2023-04-05T22:13:11.452Z,99.90
2023-04-05T22:15:41.994Z,99.90
2023-04-05T22:18:12.529Z,99.90
2023-04-05T22:20:39.509Z,99.90
2023-04-05T22:23:06.991Z,99.90
2023-04-05T22:25:34.579Z,99.90
2023-04-05T22:28:06.494Z,99.90
2023-04-05T22:30:43.959Z,99.90
2023-04-05T22:33:17.947Z,99.90
2023-04-05T22:35:45.248Z,99.90
2023-04-05T22:38:13.491Z,99.90
2023-04-05T22:40:42.244Z,99.90
2023-04-05T22:43:10.258Z,99.90
2023-04-05T22:45:37.930Z,99.90
2023-04-05T22:48:07.117Z,99.90
2023-04-05T22:50:37.305Z,99.90
2023-04-05T22:53:04.381Z,99.90
2023-04-05T22:55:31.479Z,99.90
2023-04-05T22:58:01.837Z,99.90
2023-04-05T23:00:37.525Z,99.90
2023-04-05T23:03:04.937Z,99.90
2023-04-05T23:05:34.226Z,99.90
2023-04-05T23:08:01.483Z,99.90
2023-04-05T23:10:30.405Z,99.90
2023-04-05T23:12:57.766Z,99.90
2023-04-05T23:15:24.975Z,99.90
2023-04-05T23:17:52.077Z,99.90
2023-04-05T23:20:19.329Z,99.90
2023-04-05T23:22:46.641Z,99.90
2023-04-05T23:25:13.699Z,99.90
2023-04-05T23:27:40.834Z,99.90
2023-04-05T23:30:11.465Z,99.90
2023-04-05T23:32:38.798Z,99.90
2023-04-05T23:35:08.899Z,99.90
2023-04-05T23:37:36.132Z,99.90
2023-04-05T23:40:04.605Z,99.90
2023-04-05T23:42:31.600Z,99.90
2023-04-05T23:45:00.331Z,99.90
2023-04-05T23:47:27.278Z,99.90
2023-04-05T23:49:54.267Z,99.90
2023-04-05T23:52:21.395Z,99.90
2023-04-05T23:54:48.345Z,99.90
2023-04-05T23:57:15.878Z,99.90
2023-04-05T23:59:43.034Z,99.90
